createdAt,value
2023-05-23T00:01:54.298Z,-18760.00
2023-05-23T00:06:55.765Z,-18758.00
2023-05-23T00:11:56.852Z,-18759.00
2023-05-23T00:16:58.833Z,-18759.00
2023-05-23T00:21:59.747Z,-18757.00
2023-05-23T00:27:01.297Z,-18759.00
2023-05-23T00:32:03.331Z,-18760.00
2023-05-23T00:37:04.271Z,-18761.00
2023-05-23T00:42:05.893Z,-18763.00
2023-05-23T00:47:07.292Z,-18761.00
2023-05-23T00:52:08.769Z,-18760.00
2023-05-23T00:57:10.521Z,-18758.00
2023-05-23T01:02:12.082Z,-18756.00
2023-05-23T01:07:13.361Z,-18751.00
2023-05-23T01:12:46.192Z,-18746.00
2023-05-23T01:20:55.200Z,-18742.00
2023-05-23T01:29:09.661Z,-18738.00
2023-05-23T01:34:12.900Z,-18730.00
2023-05-23T01:39:13.845Z,-18727.00
2023-05-23T01:44:15.412Z,-18729.00
2023-05-23T01:49:17.950Z,-18721.00
2023-05-23T01:54:19.188Z,-18719.00
2023-05-23T01:59:20.365Z,-18714.00
2023-05-23T02:04:21.352Z,-18714.00
2023-05-23T02:09:22.292Z,-18713.00
2023-05-23T02:14:23.206Z,-18712.00
2023-05-23T02:19:24.101Z,-18710.00
2023-05-23T02:24:25.196Z,-18708.00
2023-05-23T02:29:26.064Z,-18705.00
2023-05-23T02:34:26.971Z,-18703.00
2023-05-23T02:39:28.070Z,-18701.00
2023-05-23T02:44:29.558Z,-18699.00
2023-05-23T02:49:31.172Z,-18698.00
2023-05-23T02:54:31.976Z,-18698.00
2023-05-23T02:59:33.624Z,-18697.00
2023-05-23T03:04:34.447Z,-18696.00
2023-05-23T03:09:35.446Z,-18692.00
2023-05-23T03:14:36.221Z,-18691.00
2023-05-23T03:19:37.201Z,-18692.00
2023-05-23T03:24:38.181Z,-18692.00
2023-05-23T03:29:39.152Z,-18690.00
2023-05-23T03:34:39.969Z,-18687.00
2023-05-23T03:39:40.873Z,-18685.00
2023-05-23T03:44:41.697Z,-18684.00
2023-05-23T03:49:44.354Z,-18684.00
2023-05-23T03:54:45.970Z,-18684.00
2023-05-23T03:59:46.966Z,-18684.00
2023-05-23T04:04:48.921Z,-18684.00
2023-05-23T04:09:50.093Z,-18682.00
2023-05-23T04:14:52.186Z,-18684.00
2023-05-23T04:19:53.547Z,-18687.00
2023-05-23T04:24:54.969Z,-18692.00
2023-05-23T04:29:57.482Z,-18692.00
2023-05-23T04:35:01.482Z,-18692.00
2023-05-23T04:40:03.993Z,-18690.00
2023-05-23T04:46:26.572Z,-18693.00
2023-05-23T04:54:05.217Z,-18693.00
2023-05-23T04:59:08.099Z,-18692.00
2023-05-23T05:04:09.841Z,-18693.00
2023-05-23T05:09:10.911Z,-18691.00
2023-05-23T05:14:12.098Z,-18690.00
2023-05-23T05:19:13.438Z,-18690.00
2023-05-23T05:24:15.005Z,-18694.00
2023-05-23T05:29:16.538Z,-18688.00
2023-05-23T05:34:18.944Z,-18693.00
2023-05-23T05:39:20.331Z,-18702.00
2023-05-23T05:44:22.389Z,-18698.00
2023-05-23T05:49:24.910Z,-18696.00
2023-05-23T05:54:25.932Z,-18712.00
2023-05-23T05:59:27.282Z,-18720.00
2023-05-23T06:04:29.227Z,-18719.00
2023-05-23T06:09:31.424Z,-18716.00
2023-05-23T06:14:32.619Z,-18710.00
2023-05-23T06:19:34.433Z,-18706.00
2023-05-23T06:24:35.527Z,-18702.00
2023-05-23T06:29:38.338Z,-18698.00
2023-05-23T06:34:39.150Z,-18696.00
2023-05-23T06:39:40.773Z,-18698.00
2023-05-23T06:44:41.753Z,-18697.00
2023-05-23T06:49:45.684Z,-18705.00
2023-05-23T06:54:46.652Z,-18708.00
2023-05-23T06:59:48.112Z,-18717.00
2023-05-23T07:04:49.452Z,-18724.00
2023-05-23T07:09:54.332Z,-18739.00
2023-05-23T07:14:56.605Z,-18741.00
2023-05-23T07:19:59.255Z,-18739.00
2023-05-23T07:25:01.386Z,-18741.00
2023-05-23T07:30:09.072Z,-18755.00
2023-05-23T07:35:10.966Z,-18749.00
2023-05-23T07:40:11.835Z,-18744.00
2023-05-23T07:45:13.735Z,-18737.00
2023-05-23T07:50:16.962Z,-18736.00
2023-05-23T07:55:18.285Z,-18729.00
2023-05-23T08:00:20.175Z,-18736.00
2023-05-23T08:05:23.911Z,-18738.00
2023-05-23T08:10:28.903Z,-18740.00
2023-05-23T08:15:36.608Z,-18746.00
2023-05-23T08:20:43.653Z,-18746.00
2023-05-23T08:25:44.941Z,-18744.00
2023-05-23T08:30:46.211Z,-18748.00
2023-05-23T08:35:47.577Z,-18748.00
2023-05-23T08:40:53.611Z,-18743.00
2023-05-23T08:45:56.695Z,-18745.00
2023-05-23T08:51:02.237Z,-18740.00
2023-05-23T08:56:03.832Z,-18729.00
2023-05-23T09:01:13.737Z,-18734.00
2023-05-23T09:06:17.454Z,-18736.00
2023-05-23T09:11:21.164Z,-18744.00
2023-05-23T09:16:22.969Z,-18739.00
2023-05-23T09:21:31.221Z,-18738.00
2023-05-23T09:26:49.803Z,-18738.00
2023-05-23T09:31:51.051Z,-18734.00
2023-05-23T09:36:54.737Z,-18743.00
2023-05-23T09:41:58.678Z,-18738.00
2023-05-23T09:47:06.206Z,-18745.00
2023-05-23T09:52:07.120Z,-18740.00
2023-05-23T09:57:10.473Z,-18745.00
2023-05-23T10:02:12.054Z,-18746.00
2023-05-23T10:07:15.091Z,-18744.00
2023-05-23T10:13:40.968Z,-18744.00
2023-05-23T10:18:51.353Z,-18745.00
2023-05-23T10:23:52.586Z,-18739.00
2023-05-23T10:28:54.499Z,-18723.00
2023-05-23T10:34:07.931Z,-18721.00
2023-05-23T10:39:16.283Z,-18716.00
2023-05-23T10:44:28.429Z,-18714.00
2023-05-23T10:49:51.648Z,-18721.00
2023-05-23T10:54:54.131Z,-18724.00
2023-05-23T10:59:56.532Z,-18722.00
2023-05-23T11:05:21.629Z,-18728.00
2023-05-23T11:10:22.545Z,-18740.00
2023-05-23T11:15:23.473Z,-18750.00
2023-05-23T11:20:26.600Z,-18757.00
2023-05-23T11:25:52.984Z,-18765.00
2023-05-23T11:30:56.623Z,-18771.00
2023-05-23T11:35:57.494Z,-18769.00
2023-05-23T11:40:59.685Z,-18759.00
2023-05-23T11:46:08.164Z,-18739.00
2023-05-23T11:51:09.200Z,-18730.00
2023-05-23T11:56:10.056Z,-18730.00
2023-05-23T12:01:12.179Z,-18741.00
2023-05-23T12:06:18.251Z,-18745.00
2023-05-23T12:11:19.127Z,-18755.00
2023-05-23T12:16:20.471Z,-18755.00
2023-05-23T12:21:25.164Z,-18747.00
2023-05-23T12:26:26.001Z,-18735.00
2023-05-23T12:31:27.099Z,-18724.00
2023-05-23T12:36:31.996Z,-18719.00
2023-05-23T12:41:33.194Z,-18712.00
2023-05-23T12:46:34.617Z,-18717.00
2023-05-23T12:51:35.984Z,-18723.00
2023-05-23T12:56:36.760Z,-18735.00
2023-05-23T13:01:37.917Z,-18734.00
2023-05-23T13:06:38.807Z,-18730.00
2023-05-23T13:11:40.674Z,-18719.00
2023-05-23T13:16:41.524Z,-18715.00
2023-05-23T13:21:42.769Z,-18719.00
2023-05-23T13:26:43.605Z,-18730.00
2023-05-23T13:31:44.872Z,-18748.00
2023-05-23T13:36:45.793Z,-18759.00
2023-05-23T13:41:46.983Z,-18764.00
2023-05-23T13:46:47.842Z,-18759.00
2023-05-23T13:51:49.420Z,-18756.00
2023-05-23T13:56:50.247Z,-18768.00
2023-05-23T14:01:51.091Z,-18764.00
2023-05-23T14:06:52.658Z,-18757.00
2023-05-23T14:11:53.504Z,-18745.00
2023-05-23T14:16:54.319Z,-18740.00
2023-05-23T14:21:55.401Z,-18745.00
2023-05-23T14:26:56.806Z,-18771.00
2023-05-23T14:31:59.992Z,-18774.00
2023-05-23T14:37:00.938Z,-18776.00
2023-05-23T14:42:02.047Z,-18797.00
2023-05-23T14:47:03.268Z,-18800.00
2023-05-23T14:52:04.333Z,-18785.00
2023-05-23T14:57:05.142Z,-18776.00
2023-05-23T15:02:07.502Z,-18765.00
2023-05-23T15:07:08.847Z,-18758.00
2023-05-23T15:12:09.745Z,-18763.00
2023-05-23T15:17:12.243Z,-18768.00
2023-05-23T15:22:25.801Z,-18780.00
2023-05-23T15:27:37.749Z,-18792.00
2023-05-23T15:32:38.616Z,-18787.00
2023-05-23T15:37:40.276Z,-18776.00
2023-05-23T15:42:41.083Z,-18776.00
2023-05-23T15:47:42.008Z,-18790.00
2023-05-23T15:52:42.944Z,-18785.00
2023-05-23T15:57:43.808Z,-18774.00
2023-05-23T16:02:44.795Z,-18760.00
2023-05-23T16:07:45.731Z,-18756.00
2023-05-23T16:12:46.607Z,-18756.00
2023-05-23T16:17:47.472Z,-18739.00
2023-05-23T16:22:48.506Z,-18731.00
2023-05-23T16:27:49.658Z,-18731.00
2023-05-23T16:32:50.506Z,-18732.00
2023-05-23T16:37:51.812Z,-18741.00
2023-05-23T16:42:52.641Z,-18741.00
2023-05-23T16:47:53.578Z,-18747.00
2023-05-23T16:52:54.702Z,-18745.00
2023-05-23T16:57:55.722Z,-18741.00
2023-05-23T17:02:56.625Z,-18734.00
2023-05-23T17:07:57.646Z,-18734.00
2023-05-23T17:12:58.418Z,-18727.00
2023-05-23T17:17:59.397Z,-18723.00
2023-05-23T17:23:00.333Z,-18723.00
2023-05-23T17:28:01.268Z,-18718.00
2023-05-23T17:33:02.536Z,-18716.00
2023-05-23T17:38:03.917Z,-18711.00
2023-05-23T17:43:04.712Z,-18709.00
2023-05-23T17:48:05.581Z,-18703.00
2023-05-23T17:53:07.035Z,-18702.00
2023-05-23T17:58:08.279Z,-18697.00
2023-05-23T18:03:09.126Z,-18689.00
2023-05-23T18:08:10.153Z,-18681.00
2023-05-23T18:13:11.037Z,-18677.00
2023-05-23T18:18:12.004Z,-18673.00
2023-05-23T18:23:13.179Z,-18667.00
2023-05-23T18:28:13.961Z,-18669.00
2023-05-23T18:33:15.262Z,-18668.00
2023-05-23T18:38:16.467Z,-18666.00
2023-05-23T18:43:17.698Z,-18662.00
2023-05-23T18:48:19.094Z,-18658.00
2023-05-23T18:53:20.130Z,-18657.00
2023-05-23T18:58:20.973Z,-18652.00
2023-05-23T19:03:21.954Z,-18652.00
2023-05-23T19:08:22.962Z,-18651.00
2023-05-23T19:13:23.927Z,-18651.00
2023-05-23T19:18:25.275Z,-18652.00
2023-05-23T19:23:27.312Z,-18644.00
2023-05-23T19:28:28.104Z,-18642.00
2023-05-23T19:33:28.997Z,-18642.00
2023-05-23T19:38:29.841Z,-18641.00
2023-05-23T19:43:30.718Z,-18638.00
2023-05-23T19:48:31.565Z,-18636.00
2023-05-23T19:53:32.595Z,-18634.00
2023-05-23T19:58:35.514Z,-18629.00
2023-05-23T20:03:36.865Z,-18628.00
2023-05-23T20:08:37.736Z,-18622.00
2023-05-23T20:13:38.625Z,-18620.00
2023-05-23T20:18:41.886Z,-18618.00
2023-05-23T20:23:44.565Z,-18616.00
2023-05-23T20:28:45.398Z,-18614.00
2023-05-23T20:33:46.292Z,-18611.00
2023-05-23T20:38:47.158Z,-18606.00
2023-05-23T20:43:48.273Z,-18597.00
2023-05-23T20:48:49.136Z,-18595.00
2023-05-23T20:53:50.938Z,-18592.00
2023-05-23T20:58:51.934Z,-18590.00
2023-05-23T21:03:53.928Z,-18586.00
2023-05-23T21:08:54.730Z,-18583.00
2023-05-23T21:13:56.882Z,-18585.00
2023-05-23T21:18:57.791Z,-18579.00
2023-05-23T21:23:58.775Z,-18581.00
2023-05-23T21:28:59.601Z,-18577.00
2023-05-23T21:34:11.060Z,-18577.00
2023-05-23T21:39:19.877Z,-18576.00
2023-05-23T21:44:20.757Z,-18576.00
2023-05-23T21:49:21.682Z,-18573.00
2023-05-23T21:54:22.608Z,-18571.00
2023-05-23T21:59:23.548Z,-18570.00
2023-05-23T22:04:24.780Z,-18570.00
2023-05-23T22:09:25.793Z,-18567.00
2023-05-23T22:14:26.745Z,-18567.00
2023-05-23T22:19:28.648Z,-18567.00
2023-05-23T22:24:30.409Z,-18565.00
2023-05-23T22:29:31.250Z,-18561.00
2023-05-23T22:34:32.178Z,-18561.00
2023-05-23T22:39:33.013Z,-18560.00
2023-05-23T22:44:33.843Z,-18563.00
2023-05-23T22:49:35.606Z,-18562.00
2023-05-23T22:54:36.554Z,-18564.00
2023-05-23T22:59:37.442Z,-18564.00
2023-05-23T23:04:40.864Z,-18561.00
2023-05-23T23:09:41.729Z,-18558.00
2023-05-23T23:14:42.560Z,-18559.00
2023-05-23T23:19:43.368Z,-18555.00
2023-05-23T23:24:46.688Z,-18556.00
2023-05-23T23:29:47.416Z,-18552.00
2023-05-23T23:34:48.528Z,-18553.00
2023-05-23T23:39:49.405Z,-18552.00
2023-05-23T23:44:50.366Z,-18548.00
2023-05-23T23:49:51.175Z,-18543.00
2023-05-23T23:54:52.361Z,-18533.00
2023-05-23T23:59:53.170Z,-18535.00
